createdAt,value
2022-07-30T00:00:19.745Z,4.15
2022-07-30T00:02:55.180Z,2.80
2022-07-30T00:05:24.037Z,4.82
2022-07-30T00:07:52.559Z,4.07
2022-07-30T00:10:23.216Z,4.05
2022-07-30T00:12:52.008Z,3.40
2022-07-30T00:15:20.575Z,3.05
2022-07-30T00:17:49.274Z,3.08
2022-07-30T00:20:19.372Z,3.88
2022-07-30T00:22:48.101Z,4.53
2022-07-30T00:25:16.727Z,4.15
2022-07-30T00:27:45.530Z,2.63
2022-07-30T00:30:14.891Z,3.30
2022-07-30T00:32:45.297Z,3.50
2022-07-30T00:35:15.410Z,4.18
2022-07-30T00:37:45.828Z,11.20
2022-07-30T00:40:15.091Z,5.22
2022-07-30T00:42:45.628Z,4.53
2022-07-30T00:45:15.791Z,5.10
2022-07-30T00:47:44.924Z,4.05
2022-07-30T00:50:15.031Z,3.72
2022-07-30T00:52:45.324Z,3.05
2022-07-30T00:55:15.831Z,3.47
2022-07-30T00:57:44.502Z,3.28
2022-07-30T01:00:16.137Z,3.28
2022-07-30T01:02:45.089Z,3.38
2022-07-30T01:05:14.889Z,2.88
2022-07-30T01:07:43.699Z,3.50
2022-07-30T01:10:15.656Z,4.35
2022-07-30T01:12:46.942Z,2.72
2022-07-30T01:15:16.481Z,3.55
2022-07-30T01:17:52.768Z,3.53
2022-07-30T01:20:27.282Z,3.13
2022-07-30T01:23:03.580Z,3.42
2022-07-30T01:25:57.311Z,3.03
2022-07-30T01:28:30.031Z,3.95
2022-07-30T01:31:00.361Z,3.33
2022-07-30T01:33:31.005Z,2.78
2022-07-30T01:36:03.126Z,2.92
2022-07-30T01:38:34.974Z,2.75
2022-07-30T01:41:07.651Z,4.30
2022-07-30T01:43:37.357Z,2.63
2022-07-30T01:46:08.224Z,3.90
2022-07-30T01:48:41.819Z,5.13
2022-07-30T01:51:13.851Z,2.45
2022-07-30T01:53:49.270Z,2.65
2022-07-30T01:56:24.685Z,3.13
2022-07-30T01:58:56.906Z,3.78
2022-07-30T02:01:27.479Z,3.20
2022-07-30T02:04:02.134Z,3.28
2022-07-30T02:06:35.531Z,3.90
2022-07-30T02:09:11.148Z,3.95
2022-07-30T02:12:04.372Z,2.88
2022-07-30T02:14:40.345Z,5.45
2022-07-30T02:17:18.465Z,3.50
2022-07-30T02:19:54.303Z,1.98
2022-07-30T02:22:25.711Z,2.60
2022-07-30T02:24:56.345Z,2.53
2022-07-30T02:27:29.791Z,2.97
2022-07-30T02:30:01.635Z,2.45
2022-07-30T02:32:37.171Z,3.22
2022-07-30T02:35:11.604Z,2.40
2022-07-30T02:37:44.480Z,2.15
2022-07-30T02:40:16.771Z,2.72
2022-07-30T02:42:48.927Z,2.83
2022-07-30T02:45:22.635Z,2.53
2022-07-30T02:47:53.793Z,2.40
2022-07-30T02:50:25.766Z,4.00
2022-07-30T02:52:57.360Z,2.92
2022-07-30T02:55:27.956Z,4.22
2022-07-30T02:58:00.833Z,4.03
2022-07-30T03:00:31.156Z,2.50
2022-07-30T03:03:02.119Z,3.75
2022-07-30T03:05:31.107Z,2.33
2022-07-30T03:08:02.223Z,1.83
2022-07-30T03:10:32.600Z,3.97
2022-07-30T03:13:03.740Z,3.13
2022-07-30T03:15:34.253Z,4.60
2022-07-30T03:18:12.052Z,4.18
2022-07-30T03:20:41.425Z,3.50
2022-07-30T03:23:11.521Z,2.60
2022-07-30T03:25:42.490Z,3.45
2022-07-30T03:28:14.419Z,4.72
2022-07-30T03:30:44.145Z,3.25
2022-07-30T03:33:13.632Z,4.80
2022-07-30T03:35:45.040Z,3.38
2022-07-30T03:38:14.512Z,3.58
2022-07-30T03:40:43.922Z,3.40
2022-07-30T03:43:32.452Z,1.80
2022-07-30T03:46:04.134Z,3.30
2022-07-30T03:48:36.094Z,3.13
2022-07-30T03:51:05.329Z,3.78
2022-07-30T03:53:34.401Z,5.28
2022-07-30T03:56:41.722Z,4.57
2022-07-30T03:59:16.852Z,2.50
2022-07-30T04:01:46.082Z,2.90
2022-07-30T04:04:26.396Z,3.08
2022-07-30T04:06:56.103Z,4.57
2022-07-30T04:09:24.933Z,2.88
2022-07-30T04:11:53.502Z,5.78
2022-07-30T04:14:28.849Z,2.70
2022-07-30T04:17:09.217Z,1.65
2022-07-30T04:19:43.380Z,1.70
2022-07-30T04:22:16.253Z,2.47
2022-07-30T04:24:46.507Z,2.25
2022-07-30T04:27:15.604Z,1.65
2022-07-30T04:29:45.936Z,1.98
2022-07-30T04:32:14.416Z,2.50
2022-07-30T04:38:15.111Z,2.70
2022-07-30T04:40:47.326Z,3.10
2022-07-30T04:43:16.421Z,1.77
2022-07-30T04:45:46.852Z,3.72
2022-07-30T04:48:15.496Z,3.70
2022-07-30T04:50:48.240Z,2.17
2022-07-30T04:53:20.960Z,2.00
2022-07-30T04:55:55.412Z,2.83
2022-07-30T04:58:28.351Z,2.63
2022-07-30T05:00:59.444Z,1.48
2022-07-30T05:03:33.050Z,2.65
2022-07-30T05:06:02.664Z,4.15
2022-07-30T05:08:39.214Z,2.10
2022-07-30T05:11:13.364Z,2.28
2022-07-30T05:13:46.410Z,1.52
2022-07-30T05:16:18.618Z,2.72
2022-07-30T05:18:47.286Z,1.55
2022-07-30T05:21:15.808Z,2.80
2022-07-30T05:23:50.564Z,2.70
2022-07-30T05:26:29.501Z,1.52
2022-07-30T05:28:59.741Z,3.92
2022-07-30T05:31:38.081Z,2.63
2022-07-30T05:34:08.097Z,2.22
2022-07-30T05:36:44.731Z,2.17
2022-07-30T05:39:16.512Z,2.58
2022-07-30T05:41:51.456Z,1.83
2022-07-30T05:44:49.399Z,1.70
2022-07-30T05:47:21.122Z,1.90
2022-07-30T05:49:51.655Z,1.08
2022-07-30T05:52:20.572Z,2.05
2022-07-30T05:54:49.273Z,2.10
2022-07-30T05:57:26.807Z,1.40
2022-07-30T05:59:55.393Z,2.47
2022-07-30T06:02:46.520Z,1.75
2022-07-30T06:05:17.824Z,2.00
2022-07-30T06:07:47.368Z,2.13
2022-07-30T06:10:17.072Z,1.10
2022-07-30T06:12:45.613Z,1.77
2022-07-30T06:15:14.246Z,1.30
2022-07-30T06:17:45.088Z,2.00
2022-07-30T06:20:49.637Z,2.17
2022-07-30T06:23:25.230Z,2.00
2022-07-30T06:26:17.966Z,1.73
2022-07-30T06:28:46.984Z,1.83
2022-07-30T06:31:20.307Z,2.55
2022-07-30T06:33:48.859Z,1.30
2022-07-30T06:36:18.916Z,2.58
2022-07-30T06:39:00.033Z,2.17
2022-07-30T06:41:47.140Z,2.58
2022-07-30T06:44:16.610Z,1.75
2022-07-30T06:46:53.947Z,2.10
2022-07-30T06:49:26.602Z,3.50
2022-07-30T06:51:57.138Z,3.53
2022-07-30T06:54:25.791Z,2.63
2022-07-30T06:56:54.544Z,1.63
2022-07-30T06:59:23.158Z,2.17
2022-07-30T07:02:11.720Z,3.55
2022-07-30T07:05:00.451Z,4.43
2022-07-30T07:07:41.158Z,2.60
2022-07-30T07:10:12.843Z,1.80
2022-07-30T07:12:47.446Z,1.75
2022-07-30T07:15:19.216Z,2.30
2022-07-30T07:17:51.285Z,3.05
2022-07-30T07:20:34.120Z,2.42
2022-07-30T07:23:09.184Z,1.77
2022-07-30T07:25:40.873Z,2.67
2022-07-30T07:28:12.094Z,1.77
2022-07-30T07:30:45.348Z,2.88
2022-07-30T07:33:15.680Z,1.58
2022-07-30T07:35:48.727Z,3.28
2022-07-30T07:38:33.122Z,2.78
2022-07-30T07:41:01.780Z,2.25
2022-07-30T07:43:31.141Z,3.78
2022-07-30T07:46:01.672Z,2.95
2022-07-30T07:48:33.408Z,1.88
2022-07-30T07:51:46.810Z,2.72
2022-07-30T07:54:22.029Z,1.83
2022-07-30T07:56:53.353Z,1.48
2022-07-30T07:59:39.670Z,2.78
2022-07-30T08:02:14.914Z,1.88
2022-07-30T08:04:52.925Z,1.83
2022-07-30T08:07:45.079Z,1.55
2022-07-30T08:10:33.766Z,2.08
2022-07-30T08:13:51.644Z,2.10
2022-07-30T08:16:32.577Z,3.60
2022-07-30T08:19:07.382Z,1.70
2022-07-30T08:21:41.338Z,4.60
2022-07-30T08:24:10.471Z,1.30
2022-07-30T08:26:40.409Z,1.95
2022-07-30T08:29:09.809Z,2.78
2022-07-30T08:31:40.532Z,2.00
2022-07-30T08:34:09.240Z,1.98
2022-07-30T08:36:37.848Z,2.38
2022-07-30T08:39:06.592Z,1.77
2022-07-30T08:41:37.096Z,2.15
2022-07-30T08:44:13.100Z,2.28
2022-07-30T08:46:46.897Z,3.40
2022-07-30T08:49:30.464Z,4.85
2022-07-30T08:52:00.063Z,2.33
2022-07-30T08:54:45.238Z,2.60
2022-07-30T08:57:14.346Z,4.45
2022-07-30T08:59:59.363Z,3.85
2022-07-30T09:24:47.815Z,1.83
2022-07-30T09:27:47.506Z,2.97
2022-07-30T09:30:47.610Z,2.88
2022-07-30T09:33:38.066Z,3.10
2022-07-30T09:36:33.404Z,2.53
2022-07-30T09:39:37.232Z,2.92
2022-07-30T09:42:35.066Z,2.45
2022-07-30T09:45:11.372Z,4.35
2022-07-30T09:47:48.490Z,2.97
2022-07-30T09:50:29.472Z,3.05
2022-07-30T09:53:08.882Z,6.07
2022-07-30T09:55:41.993Z,1.33
2022-07-30T09:58:16.613Z,2.75
2022-07-30T10:00:59.670Z,1.52
2022-07-30T10:03:52.358Z,1.83
2022-07-30T10:06:37.778Z,1.58
2022-07-30T10:09:30.184Z,4.22
2022-07-30T10:14:42.708Z,1.92
2022-07-30T10:17:14.928Z,1.90
2022-07-30T10:19:56.567Z,4.07
2022-07-30T10:22:50.718Z,2.47
2022-07-30T10:25:49.743Z,1.77
2022-07-30T10:28:52.301Z,2.78
2022-07-30T10:31:49.128Z,1.98
2022-07-30T10:34:10.785Z,2.08
2022-07-30T10:36:42.952Z,1.58
2022-07-30T10:39:15.402Z,3.28
2022-07-30T10:41:53.901Z,1.27
2022-07-30T10:44:52.194Z,2.53
2022-07-30T10:47:23.734Z,1.80
2022-07-30T10:50:12.154Z,3.70
2022-07-30T10:52:54.089Z,2.47
2022-07-30T10:55:36.985Z,7.97
2022-07-30T10:58:09.864Z,4.72
2022-07-30T11:01:00.091Z,2.35
2022-07-30T11:03:40.316Z,1.48
2022-07-30T11:06:30.548Z,7.35
2022-07-30T11:08:59.389Z,3.08
2022-07-30T11:12:02.116Z,4.93
2022-07-30T11:15:07.360Z,2.33
2022-07-30T11:18:04.389Z,2.30
2022-07-30T11:20:34.139Z,2.90
2022-07-30T11:23:39.291Z,2.92
2022-07-30T11:26:14.126Z,2.50
2022-07-30T11:28:45.773Z,1.92
2022-07-30T11:31:55.711Z,1.50
2022-07-30T11:34:30.681Z,1.30
2022-07-30T11:37:22.204Z,1.33
2022-07-30T11:40:13.966Z,0.63
2022-07-30T11:42:43.777Z,2.65
2022-07-30T11:45:30.718Z,2.75
2022-07-30T11:48:03.579Z,1.98
2022-07-30T11:50:36.220Z,1.58
2022-07-30T11:53:07.628Z,1.75
2022-07-30T11:55:38.933Z,2.13
2022-07-30T11:58:09.669Z,1.48
2022-07-30T12:00:40.140Z,1.73
2022-07-30T12:03:13.060Z,1.30
2022-07-30T12:05:43.694Z,1.77
2022-07-30T12:08:31.737Z,2.63
2022-07-30T12:11:02.950Z,3.78
2022-07-30T12:13:44.427Z,3.45
2022-07-30T12:16:17.728Z,2.22
2022-07-30T12:18:47.613Z,1.88
2022-07-30T12:21:17.778Z,1.60
2022-07-30T12:23:55.773Z,2.53
2022-07-30T12:26:26.797Z,1.25
2022-07-30T12:28:57.245Z,2.30
2022-07-30T12:31:25.804Z,1.95
2022-07-30T12:33:59.045Z,3.83
2022-07-30T12:36:32.044Z,2.08
2022-07-30T12:39:01.762Z,1.88
2022-07-30T12:41:44.049Z,3.00
2022-07-30T12:44:32.804Z,1.40
2022-07-30T12:47:01.746Z,2.42
2022-07-30T12:49:39.564Z,2.25
2022-07-30T12:55:07.029Z,2.40
2022-07-30T12:58:01.597Z,4.35
2022-07-30T13:00:36.190Z,4.07
2022-07-30T13:03:21.501Z,2.75
2022-07-30T13:05:52.052Z,1.48
2022-07-30T13:08:53.877Z,1.30
2022-07-30T13:11:24.415Z,1.63
2022-07-30T13:13:53.650Z,3.85
2022-07-30T13:16:22.684Z,3.50
2022-07-30T13:18:51.099Z,1.23
2022-07-30T13:21:19.529Z,1.15
2022-07-30T13:23:48.064Z,2.30
2022-07-30T13:26:17.924Z,1.25
2022-07-30T13:28:47.233Z,2.65
2022-07-30T13:31:15.717Z,2.40
2022-07-30T13:33:44.297Z,2.88
2022-07-30T13:36:12.808Z,2.53
2022-07-30T13:38:41.241Z,3.35
2022-07-30T13:41:09.919Z,1.45
2022-07-30T13:43:41.664Z,1.67
2022-07-30T13:46:10.259Z,2.15
2022-07-30T13:48:38.943Z,1.75
2022-07-30T13:51:07.533Z,2.10
2022-07-30T13:53:36.240Z,1.83
2022-07-30T13:56:05.436Z,2.92
2022-07-30T13:58:42.641Z,1.92
2022-07-30T14:01:17.869Z,5.13
2022-07-30T14:03:49.930Z,3.40
2022-07-30T14:06:19.193Z,1.85
2022-07-30T14:08:47.865Z,2.53
2022-07-30T14:11:17.010Z,1.73
2022-07-30T14:13:47.056Z,1.50
2022-07-30T14:16:42.383Z,1.80
2022-07-30T14:19:04.274Z,2.10
2022-07-30T14:21:32.754Z,1.35
2022-07-30T14:24:01.380Z,1.42
2022-07-30T14:26:36.222Z,4.80
2022-07-30T14:29:06.749Z,2.22
2022-07-30T14:31:35.646Z,1.52
2022-07-30T14:34:05.593Z,3.20
2022-07-30T14:36:34.198Z,3.72
2022-07-30T14:39:04.328Z,2.88
2022-07-30T14:41:33.486Z,6.10
2022-07-30T14:44:02.626Z,6.35
2022-07-30T14:46:32.643Z,3.78
2022-07-30T14:49:01.126Z,6.18
2022-07-30T14:51:33.920Z,3.67
2022-07-30T14:54:03.510Z,3.90
2022-07-30T14:56:32.073Z,2.05
2022-07-30T14:59:01.228Z,3.35
2022-07-30T15:01:29.867Z,3.95
2022-07-30T15:04:00.153Z,10.02
2022-07-30T15:06:29.099Z,4.50
2022-07-30T15:08:57.562Z,3.03
2022-07-30T15:11:26.039Z,2.78
2022-07-30T15:13:54.571Z,2.10
2022-07-30T15:16:23.069Z,3.83
2022-07-30T15:18:51.561Z,1.73
2022-07-30T15:21:21.412Z,1.08
2022-07-30T15:23:50.301Z,1.80
2022-07-30T15:26:18.701Z,2.25
2022-07-30T15:28:47.167Z,2.00
2022-07-30T15:31:15.791Z,2.40
2022-07-30T15:33:45.110Z,1.98
2022-07-30T15:36:13.675Z,3.15
2022-07-30T15:38:43.539Z,2.22
2022-07-30T15:41:13.882Z,2.72
2022-07-30T15:43:42.602Z,3.97
2022-07-30T15:46:11.185Z,1.85
2022-07-30T15:48:39.877Z,2.95
2022-07-30T15:51:08.552Z,2.75
2022-07-30T15:53:37.206Z,1.33
2022-07-30T15:56:07.390Z,3.17
2022-07-30T15:58:38.272Z,3.25
2022-07-30T16:01:10.443Z,2.80
2022-07-30T16:03:39.056Z,1.55
2022-07-30T16:06:07.777Z,4.22
2022-07-30T16:08:36.216Z,2.05
2022-07-30T16:11:05.226Z,3.28
2022-07-30T16:13:35.140Z,3.42
2022-07-30T16:16:04.183Z,1.58
2022-07-30T16:18:32.585Z,2.30
2022-07-30T16:21:01.473Z,2.20
2022-07-30T16:23:36.327Z,2.97
2022-07-30T16:26:05.741Z,4.70
2022-07-30T16:28:35.591Z,3.53
2022-07-30T16:31:05.299Z,2.65
2022-07-30T16:33:33.855Z,3.80
2022-07-30T16:36:02.314Z,4.88
2022-07-30T16:38:31.205Z,3.65
2022-07-30T16:40:59.679Z,2.97
2022-07-30T16:43:28.188Z,3.55
2022-07-30T16:45:58.501Z,5.90
2022-07-30T16:48:27.746Z,1.55
2022-07-30T16:50:56.227Z,3.17
2022-07-30T16:53:24.679Z,2.83
2022-07-30T16:55:53.181Z,2.80
2022-07-30T16:58:21.648Z,2.55
2022-07-30T17:00:58.434Z,1.77
2022-07-30T17:03:27.169Z,2.20
2022-07-30T17:05:56.045Z,3.50
2022-07-30T17:08:25.323Z,3.22
2022-07-30T17:10:54.127Z,1.15
2022-07-30T17:13:23.066Z,2.20
2022-07-30T17:15:51.852Z,3.13
2022-07-30T17:18:21.739Z,2.78
2022-07-30T17:20:50.180Z,2.53
2022-07-30T17:23:18.791Z,1.90
2022-07-30T17:25:47.239Z,3.88
2022-07-30T17:28:17.751Z,1.75
2022-07-30T17:30:46.183Z,4.30
2022-07-30T17:33:14.631Z,3.67
2022-07-30T17:35:44.584Z,5.45
2022-07-30T17:38:12.982Z,3.47
2022-07-30T17:40:41.532Z,2.45
2022-07-30T17:43:11.644Z,2.95
2022-07-30T17:45:42.804Z,1.92
2022-07-30T17:48:11.378Z,2.95
2022-07-30T17:50:39.823Z,2.42
2022-07-30T17:53:09.921Z,2.67
2022-07-30T17:55:38.560Z,3.17
2022-07-30T17:58:07.462Z,2.38
2022-07-30T18:00:36.051Z,2.22
2022-07-30T18:03:04.919Z,3.67
2022-07-30T18:05:33.675Z,3.33
2022-07-30T18:08:02.262Z,2.28
2022-07-30T18:10:32.470Z,1.98
2022-07-30T18:13:19.265Z,2.90
2022-07-30T18:15:49.418Z,8.50
2022-07-30T18:18:17.887Z,2.78
2022-07-30T18:20:48.275Z,2.53
2022-07-30T18:23:19.272Z,3.17
2022-07-30T18:25:51.797Z,2.70
2022-07-30T18:28:23.064Z,5.70
2022-07-30T18:30:51.661Z,4.35
2022-07-30T18:33:20.212Z,5.95
2022-07-30T18:35:48.748Z,3.15
2022-07-30T18:38:17.353Z,4.22
2022-07-30T18:40:57.692Z,5.05
2022-07-30T18:43:28.657Z,3.92
2022-07-30T18:45:58.097Z,3.28
2022-07-30T18:48:26.907Z,4.50
2022-07-30T18:50:55.440Z,3.38
2022-07-30T18:53:24.664Z,7.32
2022-07-30T18:55:53.162Z,6.63
2022-07-30T18:58:22.031Z,4.97
2022-07-30T19:00:51.919Z,3.33
2022-07-30T19:03:23.073Z,5.22
2022-07-30T19:05:51.850Z,7.75
2022-07-30T19:08:20.300Z,5.53
2022-07-30T19:10:48.949Z,6.30
2022-07-30T19:13:17.388Z,4.13
2022-07-30T19:15:46.044Z,8.40
2022-07-30T19:18:15.893Z,4.93
2022-07-30T19:20:44.654Z,3.80
2022-07-30T19:23:13.793Z,4.97
2022-07-30T19:25:42.307Z,7.47
2022-07-30T19:28:13.531Z,7.05
2022-07-30T19:30:42.167Z,7.53
2022-07-30T19:33:15.434Z,5.93
2022-07-30T19:35:47.331Z,6.00
2022-07-30T19:38:21.620Z,6.28
2022-07-30T19:40:50.869Z,6.85
2022-07-30T19:43:23.974Z,8.10
2022-07-30T19:45:53.226Z,7.68
2022-07-30T19:48:29.105Z,7.72
2022-07-30T19:53:51.190Z,6.43
2022-07-30T19:56:20.616Z,13.02
2022-07-30T19:58:52.072Z,7.82
2022-07-30T20:01:22.372Z,7.47
2022-07-30T20:03:51.604Z,9.75
2022-07-30T20:06:22.222Z,6.82
2022-07-30T20:08:52.480Z,8.95
2022-07-30T20:11:35.974Z,7.22
2022-07-30T20:14:05.508Z,5.65
2022-07-30T20:16:35.640Z,3.95
2022-07-30T20:19:04.708Z,9.02
2022-07-30T20:21:56.415Z,7.07
2022-07-30T20:24:24.729Z,6.57
2022-07-30T20:26:54.085Z,8.02
2022-07-30T20:29:23.505Z,6.70
2022-07-30T20:31:53.561Z,7.95
2022-07-30T20:34:25.760Z,6.68
2022-07-30T20:36:56.720Z,8.02
2022-07-30T20:39:25.991Z,5.85
2022-07-30T20:42:08.003Z,6.05
2022-07-30T20:44:38.305Z,10.35
2022-07-30T20:47:08.184Z,9.45
2022-07-30T20:49:37.301Z,5.35
2022-07-30T20:52:09.765Z,8.43
2022-07-30T20:54:43.725Z,7.07
2022-07-30T20:57:15.715Z,5.57
2022-07-30T20:59:48.805Z,7.85
2022-07-30T21:02:17.401Z,6.28
2022-07-30T21:04:59.406Z,8.32
2022-07-30T21:07:36.496Z,10.07
2022-07-30T21:10:07.342Z,7.38
2022-07-30T21:12:36.679Z,7.50
2022-07-30T21:15:11.730Z,6.93
2022-07-30T21:20:27.452Z,7.25
2022-07-30T21:23:04.624Z,7.73
2022-07-30T21:28:03.259Z,5.53
2022-07-30T21:30:33.545Z,5.68
2022-07-30T21:33:02.059Z,5.35
2022-07-30T21:35:31.692Z,5.28
2022-07-30T21:38:02.319Z,8.85
2022-07-30T21:40:31.697Z,6.50
2022-07-30T21:43:00.176Z,7.35
2022-07-30T21:45:38.712Z,5.80
2022-07-30T21:48:10.741Z,7.25
2022-07-30T21:50:40.147Z,6.78
2022-07-30T21:53:10.135Z,8.70
2022-07-30T21:55:53.240Z,6.53
2022-07-30T21:58:25.867Z,8.82
2022-07-30T22:01:17.862Z,7.38
2022-07-30T22:04:01.255Z,4.75
2022-07-30T22:06:33.897Z,6.00
2022-07-30T22:09:10.080Z,6.55
2022-07-30T22:11:48.404Z,10.25
2022-07-30T22:14:16.901Z,7.18
2022-07-30T22:16:46.458Z,7.38
2022-07-30T22:19:15.539Z,8.68
2022-07-30T22:21:47.573Z,7.93
2022-07-30T22:24:29.264Z,6.47
2022-07-30T22:27:01.715Z,6.85
2022-07-30T22:29:43.047Z,6.15
2022-07-30T22:32:12.048Z,9.73
2022-07-30T22:34:40.501Z,7.95
2022-07-30T22:39:59.080Z,9.02
2022-07-30T22:42:27.877Z,9.00
2022-07-30T22:44:56.624Z,10.82
2022-07-30T22:47:53.912Z,8.25
2022-07-30T22:54:02.759Z,12.73
2022-07-30T22:55:52.999Z,12.55
2022-07-30T22:58:26.368Z,11.07
2022-07-30T23:00:55.379Z,12.55
2022-07-30T23:03:23.907Z,10.32
2022-07-30T23:05:56.648Z,8.40
2022-07-30T23:08:30.290Z,8.32
2022-07-30T23:11:01.161Z,8.38
2022-07-30T23:12:15.155Z,7.10
2022-07-30T23:12:30.585Z,7.85
2022-07-30T23:12:31.317Z,5.47
2022-07-30T23:13:30.584Z,7.53
2022-07-30T23:15:59.166Z,7.28
2022-07-30T23:18:27.617Z,8.88
2022-07-30T23:21:00.282Z,7.65
2022-07-30T23:23:30.776Z,13.02
2022-07-30T23:26:04.307Z,10.35
2022-07-30T23:28:32.954Z,9.73
2022-07-30T23:31:01.824Z,11.60
2022-07-30T23:33:30.722Z,9.63
2022-07-30T23:36:00.330Z,13.15
2022-07-30T23:38:29.071Z,10.02
2022-07-30T23:41:01.514Z,8.70
2022-07-30T23:43:31.447Z,8.82
2022-07-30T23:46:00.051Z,7.10
2022-07-30T23:48:29.414Z,9.70
2022-07-30T23:50:58.033Z,14.65
2022-07-30T23:53:27.021Z,7.63
2022-07-30T23:55:55.511Z,11.73
2022-07-30T23:58:24.036Z,11.13
